createdAt,value
2017-08-03T00:00:11.756Z,0
2017-08-03T00:00:52.249Z,0
2017-08-03T00:01:32.815Z,0
2017-08-03T00:02:13.324Z,0
2017-08-03T00:02:53.850Z,0
2017-08-03T00:03:34.364Z,0
2017-08-03T00:04:14.834Z,0
2017-08-03T00:04:55.374Z,0
2017-08-03T00:05:35.867Z,0
2017-08-03T00:06:16.371Z,0
2017-08-03T00:06:56.856Z,0
2017-08-03T00:07:37.458Z,0
2017-08-03T00:08:17.888Z,0
2017-08-03T00:08:58.510Z,0
2017-08-03T00:09:39.027Z,0
2017-08-03T00:10:19.577Z,0
2017-08-03T00:11:00.353Z,0
2017-08-03T00:11:40.839Z,0
2017-08-03T00:12:21.356Z,0
2017-08-03T00:13:01.888Z,0
2017-08-03T00:13:42.357Z,0
2017-08-03T00:14:23.562Z,0
2017-08-03T00:15:04.060Z,0
2017-08-03T00:15:44.630Z,0
2017-08-03T00:16:25.096Z,0
2017-08-03T00:17:05.526Z,0
2017-08-03T00:17:45.998Z,0
2017-08-03T00:18:26.621Z,0
2017-08-03T00:19:07.153Z,0
2017-08-03T00:19:47.775Z,0
2017-08-03T00:20:28.251Z,0
2017-08-03T00:21:08.795Z,0
2017-08-03T00:21:49.281Z,0
2017-08-03T00:22:29.837Z,0
2017-08-03T00:23:10.235Z,0
2017-08-03T00:23:50.758Z,0
2017-08-03T00:24:31.299Z,0
2017-08-03T00:25:11.794Z,0
2017-08-03T00:25:52.318Z,0
2017-08-03T00:26:32.855Z,0
2017-08-03T00:27:13.423Z,0
2017-08-03T00:27:53.978Z,0
2017-08-03T00:28:34.381Z,0
2017-08-03T00:29:14.963Z,0
2017-08-03T00:29:55.506Z,0
2017-08-03T00:30:36.063Z,0
2017-08-03T00:31:16.618Z,0
2017-08-03T00:31:57.156Z,0
2017-08-03T00:32:37.604Z,0
2017-08-03T00:33:18.120Z,0
2017-08-03T00:33:58.782Z,0
2017-08-03T00:34:39.554Z,0
2017-08-03T00:35:20.240Z,0
2017-08-03T00:36:00.617Z,0
2017-08-03T00:36:41.221Z,0
2017-08-03T00:37:21.665Z,0
2017-08-03T00:38:02.215Z,0
2017-08-03T00:38:42.633Z,0
2017-08-03T00:39:23.134Z,0
2017-08-03T00:40:03.635Z,0
2017-08-03T00:40:44.162Z,0
2017-08-03T00:41:24.704Z,0
2017-08-03T00:42:05.304Z,0
2017-08-03T00:42:45.702Z,0
2017-08-03T00:43:26.189Z,0
2017-08-03T00:44:06.721Z,0
2017-08-03T00:44:47.294Z,0
2017-08-03T00:45:27.821Z,0
2017-08-03T00:46:08.263Z,0
2017-08-03T00:46:48.848Z,0
2017-08-03T00:47:30.136Z,0
2017-08-03T00:48:10.623Z,0
2017-08-03T00:48:51.154Z,0
2017-08-03T00:49:31.661Z,0
2017-08-03T00:50:12.214Z,0
2017-08-03T00:50:52.639Z,0
2017-08-03T00:51:33.981Z,0
2017-08-03T00:52:14.469Z,0
2017-08-03T00:52:55.013Z,0
2017-08-03T00:53:35.616Z,0
2017-08-03T00:54:16.151Z,0
2017-08-03T00:54:56.598Z,0
2017-08-03T00:55:37.142Z,0
2017-08-03T00:56:17.750Z,0
2017-08-03T00:56:58.146Z,0
2017-08-03T00:57:38.733Z,0
2017-08-03T00:58:19.271Z,0
2017-08-03T00:58:59.847Z,0
2017-08-03T00:59:40.246Z,0
2017-08-03T01:00:20.753Z,0
2017-08-03T01:01:01.241Z,0
2017-08-03T01:01:41.773Z,0
2017-08-03T01:02:22.342Z,0
2017-08-03T01:03:02.818Z,0
2017-08-03T01:03:43.368Z,0
2017-08-03T01:04:23.892Z,0
2017-08-03T01:05:04.509Z,0
2017-08-03T01:05:45.081Z,0
2017-08-03T01:06:25.615Z,0
2017-08-03T01:07:06.181Z,0
2017-08-03T01:07:46.665Z,0
2017-08-03T01:08:27.155Z,0
2017-08-03T01:09:07.681Z,0
2017-08-03T01:09:48.183Z,0
2017-08-03T01:10:28.726Z,0
2017-08-03T01:11:09.285Z,0
2017-08-03T01:11:49.770Z,0
2017-08-03T01:12:30.282Z,0
2017-08-03T01:13:10.849Z,0
2017-08-03T01:13:51.323Z,0
2017-08-03T01:14:31.884Z,0
2017-08-03T01:15:12.455Z,0
2017-08-03T01:15:52.885Z,0
2017-08-03T01:16:33.438Z,0
2017-08-03T01:17:13.914Z,0
2017-08-03T01:17:54.506Z,0
2017-08-03T01:18:34.980Z,0
2017-08-03T01:19:15.492Z,0
2017-08-03T01:19:57.172Z,0
2017-08-03T01:20:37.645Z,0
2017-08-03T01:21:18.108Z,0
2017-08-03T01:21:58.651Z,0
2017-08-03T01:22:39.142Z,0
2017-08-03T01:23:19.595Z,0
2017-08-03T01:24:00.104Z,0
2017-08-03T01:24:40.580Z,0
2017-08-03T01:25:21.134Z,0
2017-08-03T01:26:01.651Z,0
2017-08-03T01:26:42.030Z,0
2017-08-03T01:27:22.597Z,0
2017-08-03T01:28:03.064Z,0
2017-08-03T01:28:43.542Z,0
2017-08-03T01:29:24.808Z,0
2017-08-03T01:30:05.284Z,0
2017-08-03T01:30:45.963Z,0
2017-08-03T01:31:26.601Z,0
2017-08-03T01:32:07.054Z,0
2017-08-03T01:32:47.589Z,0
2017-08-03T01:33:28.073Z,0
2017-08-03T01:34:08.542Z,0
2017-08-03T01:34:49.062Z,0
2017-08-03T01:35:29.510Z,0
2017-08-03T01:36:10.112Z,0
2017-08-03T01:36:50.635Z,0
2017-08-03T01:37:31.103Z,0
2017-08-03T01:38:11.689Z,0
2017-08-03T01:38:52.155Z,0
2017-08-03T01:39:32.780Z,0
2017-08-03T01:40:13.296Z,0
2017-08-03T01:40:53.840Z,0
2017-08-03T01:41:34.339Z,0
2017-08-03T01:42:14.948Z,0
2017-08-03T01:42:55.566Z,0
2017-08-03T01:43:36.144Z,0
2017-08-03T01:44:16.718Z,0
2017-08-03T01:44:57.231Z,0
2017-08-03T01:45:37.629Z,0
2017-08-03T01:46:18.135Z,0
2017-08-03T01:46:58.623Z,0
2017-08-03T01:47:39.155Z,0
2017-08-03T01:48:19.635Z,0
2017-08-03T01:49:00.152Z,0
2017-08-03T01:49:40.633Z,0
2017-08-03T01:50:21.093Z,0
2017-08-03T01:51:01.755Z,0
2017-08-03T01:51:42.251Z,0
2017-08-03T01:52:22.801Z,0
2017-08-03T01:53:03.296Z,0
2017-08-03T01:53:43.723Z,0
2017-08-03T01:54:24.211Z,0
2017-08-03T01:55:04.746Z,0
2017-08-03T01:55:45.320Z,0
2017-08-03T01:56:25.811Z,0
2017-08-03T01:57:06.412Z,0
2017-08-03T01:57:46.927Z,0
2017-08-03T01:58:27.449Z,0
2017-08-03T01:59:07.991Z,0
2017-08-03T01:59:48.502Z,0
2017-08-03T02:00:28.886Z,0
2017-08-03T02:01:09.424Z,0
2017-08-03T02:01:50.087Z,0
2017-08-03T02:02:30.641Z,0
2017-08-03T02:03:11.292Z,0
2017-08-03T02:03:51.805Z,0
2017-08-03T02:04:32.360Z,0
2017-08-03T02:05:12.964Z,0
2017-08-03T02:05:53.493Z,0
2017-08-03T02:06:33.888Z,0
2017-08-03T02:07:14.414Z,0
2017-08-03T02:07:55.000Z,0
2017-08-03T02:08:35.447Z,0
2017-08-03T02:09:16.101Z,0
2017-08-03T02:09:56.564Z,0
2017-08-03T02:10:37.029Z,0
2017-08-03T02:11:17.619Z,0
2017-08-03T02:11:58.109Z,0
2017-08-03T02:12:39.322Z,0
2017-08-03T02:13:19.792Z,0
2017-08-03T02:14:00.233Z,0
2017-08-03T02:14:40.792Z,0
2017-08-03T02:15:21.450Z,0
2017-08-03T02:16:01.929Z,0
2017-08-03T02:16:42.470Z,0
2017-08-03T02:17:23.012Z,0
2017-08-03T02:18:03.616Z,0
2017-08-03T02:18:44.186Z,0
2017-08-03T02:19:24.723Z,0
2017-08-03T02:20:05.299Z,0
2017-08-03T02:20:45.739Z,0
2017-08-03T02:21:26.222Z,0
2017-08-03T02:22:06.748Z,0
2017-08-03T02:22:47.632Z,0
2017-08-03T02:23:28.177Z,0
2017-08-03T02:24:08.598Z,0
2017-08-03T02:24:49.213Z,0
2017-08-03T02:25:29.735Z,0
2017-08-03T02:26:10.239Z,0
2017-08-03T02:26:51.277Z,0
2017-08-03T02:27:31.801Z,0
2017-08-03T02:28:12.307Z,0
2017-08-03T02:28:52.756Z,0
2017-08-03T02:29:33.406Z,0
2017-08-03T02:30:13.952Z,0
2017-08-03T02:30:54.496Z,0
2017-08-03T02:31:35.061Z,0
2017-08-03T02:32:15.549Z,0
2017-08-03T02:32:56.213Z,0
2017-08-03T02:33:36.731Z,0
2017-08-03T02:34:17.261Z,0
2017-08-03T02:34:58.366Z,0
2017-08-03T02:35:39.012Z,0
2017-08-03T02:36:19.572Z,0
2017-08-03T02:37:00.005Z,0
2017-08-03T02:37:40.513Z,0
2017-08-03T02:38:21.011Z,0
2017-08-03T02:39:01.530Z,0
2017-08-03T02:39:41.977Z,0
2017-08-03T02:40:22.461Z,0
2017-08-03T02:41:02.976Z,0
2017-08-03T02:41:43.484Z,0
2017-08-03T02:42:24.532Z,0
2017-08-03T02:43:04.945Z,0
2017-08-03T02:43:45.487Z,0
2017-08-03T02:44:25.965Z,0
2017-08-03T02:45:06.572Z,0
2017-08-03T02:45:47.144Z,0
2017-08-03T02:46:27.676Z,0
2017-08-03T02:47:08.137Z,0
2017-08-03T02:47:48.647Z,0
2017-08-03T02:48:29.138Z,0
2017-08-03T02:49:09.570Z,0
2017-08-03T02:49:50.058Z,0
2017-08-03T02:50:30.553Z,0
2017-08-03T02:51:11.044Z,0
2017-08-03T02:51:51.589Z,0
2017-08-03T02:52:32.041Z,0
2017-08-03T02:53:12.626Z,0
2017-08-03T02:53:53.407Z,0
2017-08-03T02:54:33.969Z,0
2017-08-03T02:55:14.465Z,0
2017-08-03T02:55:54.986Z,0
2017-08-03T02:56:35.569Z,0
2017-08-03T02:57:16.195Z,0
2017-08-03T02:57:56.886Z,0
2017-08-03T02:58:37.480Z,0
2017-08-03T02:59:17.878Z,0
2017-08-03T02:59:58.405Z,0
2017-08-03T03:00:38.877Z,0
2017-08-03T03:01:19.455Z,0
2017-08-03T03:02:00.025Z,0
2017-08-03T03:02:40.486Z,0
2017-08-03T03:03:21.028Z,0
2017-08-03T03:04:01.585Z,0
2017-08-03T03:04:42.129Z,0
2017-08-03T03:05:22.544Z,0
2017-08-03T03:06:03.153Z,0
2017-08-03T03:06:43.682Z,0
2017-08-03T03:07:24.155Z,0
2017-08-03T03:08:04.690Z,0
2017-08-03T03:08:45.187Z,0
2017-08-03T03:09:25.713Z,0
2017-08-03T03:10:06.237Z,0
2017-08-03T03:10:46.731Z,0
2017-08-03T03:11:27.373Z,0
2017-08-03T03:12:07.774Z,0
2017-08-03T03:12:48.431Z,0
2017-08-03T03:13:28.804Z,0
2017-08-03T03:14:09.441Z,0
2017-08-03T03:14:49.790Z,0
2017-08-03T03:15:30.309Z,0
2017-08-03T03:16:10.916Z,0
2017-08-03T03:16:51.428Z,0
2017-08-03T03:17:31.922Z,0
2017-08-03T03:18:12.525Z,0
2017-08-03T03:18:52.947Z,0
2017-08-03T03:19:33.443Z,0
2017-08-03T03:20:13.920Z,0
2017-08-03T03:20:54.544Z,0
2017-08-03T03:21:35.188Z,0
2017-08-03T03:22:15.578Z,0
2017-08-03T03:22:56.118Z,0
2017-08-03T03:23:36.664Z,0
2017-08-03T03:24:17.158Z,0
2017-08-03T03:24:57.661Z,0
2017-08-03T03:25:38.206Z,0
2017-08-03T03:26:18.723Z,0
2017-08-03T03:26:59.157Z,0
2017-08-03T03:27:39.684Z,0
2017-08-03T03:28:20.179Z,0
2017-08-03T03:29:00.740Z,0
2017-08-03T03:29:41.233Z,0
2017-08-03T03:30:21.754Z,0
2017-08-03T03:31:02.234Z,0
2017-08-03T03:31:43.003Z,0
2017-08-03T03:32:24.065Z,0
2017-08-03T03:33:04.620Z,0
2017-08-03T03:33:45.066Z,0
2017-08-03T03:34:25.505Z,0
2017-08-03T03:35:06.049Z,0
2017-08-03T03:35:46.552Z,0
2017-08-03T03:36:26.987Z,0
2017-08-03T03:37:07.480Z,0
2017-08-03T03:37:48.032Z,0
2017-08-03T03:38:28.578Z,0
2017-08-03T03:39:09.093Z,4
2017-08-03T03:39:49.582Z,4
2017-08-03T03:40:30.131Z,4
2017-08-03T03:41:10.541Z,4
2017-08-03T03:41:51.095Z,4
2017-08-03T03:42:31.727Z,4
2017-08-03T03:43:12.057Z,4
2017-08-03T03:43:52.691Z,4
2017-08-03T03:44:33.342Z,4
2017-08-03T03:45:13.928Z,4
2017-08-03T03:45:54.507Z,4
2017-08-03T03:46:34.967Z,4
2017-08-03T03:47:15.486Z,8
2017-08-03T03:47:56.103Z,8
2017-08-03T03:48:36.552Z,8
2017-08-03T03:49:17.122Z,8
2017-08-03T03:49:57.502Z,4
2017-08-03T03:50:38.073Z,8
2017-08-03T03:51:18.582Z,8
2017-08-03T03:51:59.087Z,8
2017-08-03T03:52:39.579Z,8
2017-08-03T03:53:19.997Z,8
2017-08-03T03:54:00.593Z,8
2017-08-03T03:54:41.088Z,8
2017-08-03T03:55:21.638Z,12
2017-08-03T03:56:02.190Z,12
2017-08-03T03:56:42.712Z,12
2017-08-03T03:57:23.441Z,16
2017-08-03T03:58:04.020Z,16
2017-08-03T03:58:44.468Z,16
2017-08-03T03:59:24.900Z,16
2017-08-03T04:00:05.378Z,20
2017-08-03T04:00:45.909Z,20
2017-08-03T04:01:26.467Z,24
2017-08-03T04:02:06.979Z,20
2017-08-03T04:02:47.488Z,24
2017-08-03T04:03:28.108Z,24
2017-08-03T04:04:08.626Z,28
2017-08-03T04:04:49.146Z,28
2017-08-03T04:05:29.598Z,32
2017-08-03T04:06:10.228Z,32
2017-08-03T04:06:50.742Z,40
2017-08-03T04:07:31.210Z,40
2017-08-03T04:08:11.698Z,40
2017-08-03T04:08:52.307Z,44
2017-08-03T04:09:32.824Z,48
2017-08-03T04:10:13.344Z,52
2017-08-03T04:10:53.786Z,60
2017-08-03T04:11:34.376Z,64
2017-08-03T04:12:15.120Z,72
2017-08-03T04:12:55.540Z,80
2017-08-03T04:13:36.115Z,88
2017-08-03T04:14:16.573Z,92
2017-08-03T04:14:57.125Z,96
2017-08-03T04:15:38.398Z,100
2017-08-03T04:16:18.923Z,100
2017-08-03T04:17:00.302Z,100
2017-08-03T04:17:40.703Z,96
2017-08-03T04:18:21.277Z,104
2017-08-03T04:19:01.734Z,104
2017-08-03T04:19:42.197Z,104
2017-08-03T04:20:22.775Z,108
2017-08-03T04:21:03.195Z,108
2017-08-03T04:21:43.719Z,104
2017-08-03T04:22:24.317Z,104
2017-08-03T04:23:04.945Z,100
2017-08-03T04:23:45.447Z,96
2017-08-03T04:24:25.970Z,96
2017-08-03T04:25:06.490Z,96
2017-08-03T04:25:47.270Z,92
2017-08-03T04:26:27.799Z,100
2017-08-03T04:27:08.336Z,100
2017-08-03T04:27:48.805Z,104
2017-08-03T04:28:29.287Z,104
2017-08-03T04:29:09.969Z,112
2017-08-03T04:29:50.544Z,120
2017-08-03T04:30:31.087Z,124
2017-08-03T04:31:11.557Z,136
2017-08-03T04:31:52.108Z,140
2017-08-03T04:32:32.637Z,152
2017-08-03T04:33:13.334Z,168
2017-08-03T04:33:53.844Z,180
2017-08-03T04:34:34.338Z,196
2017-08-03T04:35:14.863Z,204
2017-08-03T04:35:55.347Z,216
2017-08-03T04:36:36.078Z,216
2017-08-03T04:37:16.562Z,216
2017-08-03T04:37:57.138Z,216
2017-08-03T04:38:37.768Z,212
2017-08-03T04:39:18.261Z,216
2017-08-03T04:39:58.722Z,216
2017-08-03T04:40:39.419Z,220
2017-08-03T04:41:20.135Z,232
2017-08-03T04:42:00.463Z,244
2017-08-03T04:42:41.127Z,268
2017-08-03T04:43:21.486Z,308
2017-08-03T04:44:02.173Z,348
2017-08-03T04:44:42.701Z,400
2017-08-03T04:45:23.195Z,456
2017-08-03T04:46:04.112Z,504
2017-08-03T04:46:44.575Z,552
2017-08-03T04:47:25.048Z,592
2017-08-03T04:48:05.738Z,624
2017-08-03T04:48:46.195Z,652
2017-08-03T04:49:26.675Z,668
2017-08-03T04:50:07.141Z,672
2017-08-03T04:50:47.987Z,656
2017-08-03T04:51:28.576Z,640
2017-08-03T04:52:09.156Z,616
2017-08-03T04:52:49.688Z,592
2017-08-03T04:53:30.370Z,572
2017-08-03T04:54:10.919Z,564
2017-08-03T04:54:51.429Z,556
2017-08-03T04:55:32.069Z,536
2017-08-03T04:56:13.300Z,524
2017-08-03T04:56:53.709Z,504
2017-08-03T04:57:34.198Z,488
2017-08-03T04:58:14.866Z,476
2017-08-03T04:58:55.216Z,468
2017-08-03T04:59:35.812Z,460
2017-08-03T05:00:16.297Z,444
2017-08-03T05:00:56.763Z,424
2017-08-03T05:01:37.609Z,408
2017-08-03T05:02:17.992Z,400
2017-08-03T05:02:58.513Z,396
2017-08-03T05:03:39.283Z,400
2017-08-03T05:04:19.657Z,408
2017-08-03T05:05:00.517Z,424
2017-08-03T05:05:40.943Z,448
2017-08-03T05:06:21.389Z,472
2017-08-03T05:07:02.026Z,504
2017-08-03T05:07:42.731Z,528
2017-08-03T05:08:23.184Z,544
2017-08-03T05:09:03.844Z,548
2017-08-03T05:09:44.266Z,544
2017-08-03T05:10:24.919Z,528
2017-08-03T05:11:05.645Z,516
2017-08-03T05:11:46.513Z,504
2017-08-03T05:12:27.103Z,504
2017-08-03T05:13:07.557Z,508
2017-08-03T05:13:48.177Z,516
2017-08-03T05:14:29.075Z,516
2017-08-03T05:15:09.414Z,516
2017-08-03T05:15:49.999Z,520
2017-08-03T05:16:30.434Z,520
2017-08-03T05:17:11.708Z,516
2017-08-03T05:17:52.618Z,504
2017-08-03T05:18:32.997Z,492
2017-08-03T05:19:13.466Z,480
2017-08-03T05:19:54.300Z,476
2017-08-03T05:20:34.759Z,468
2017-08-03T05:21:16.005Z,468
2017-08-03T05:21:56.220Z,472
2017-08-03T05:22:37.139Z,472
2017-08-03T05:23:18.688Z,472
2017-08-03T05:24:00.380Z,468
2017-08-03T05:24:43.213Z,480
2017-08-03T05:25:23.738Z,496
2017-08-03T05:26:05.119Z,528
2017-08-03T05:26:45.595Z,560
2017-08-03T05:27:25.886Z,604
2017-08-03T05:28:06.450Z,652
2017-08-03T05:28:47.204Z,696
2017-08-03T05:29:27.796Z,736
2017-08-03T05:30:08.403Z,772
2017-08-03T05:30:48.899Z,784
2017-08-03T05:31:29.570Z,784
2017-08-03T05:32:10.772Z,768
2017-08-03T05:32:51.349Z,736
2017-08-03T05:33:32.242Z,708
2017-08-03T05:34:12.607Z,676
2017-08-03T05:34:53.087Z,648
2017-08-03T05:35:33.690Z,632
2017-08-03T05:36:14.219Z,628
2017-08-03T05:36:54.704Z,636
2017-08-03T05:37:35.473Z,648
2017-08-03T05:38:16.026Z,660
2017-08-03T05:38:56.475Z,668
2017-08-03T05:39:37.021Z,688
2017-08-03T05:40:17.493Z,724
2017-08-03T05:40:59.191Z,788
2017-08-03T05:41:39.564Z,864
2017-08-03T05:42:20.200Z,960
2017-08-03T05:43:00.900Z,1056
2017-08-03T05:43:41.369Z,1160
2017-08-03T05:44:21.963Z,1256
2017-08-03T05:45:02.523Z,1364
2017-08-03T05:45:43.013Z,1476
2017-08-03T05:46:23.577Z,1608
2017-08-03T05:47:04.098Z,1764
2017-08-03T05:47:44.768Z,1940
2017-08-03T05:48:26.238Z,2112
2017-08-03T05:49:06.672Z,2256
2017-08-03T05:49:47.392Z,2376
2017-08-03T05:50:27.995Z,2444
2017-08-03T05:51:08.549Z,2436
2017-08-03T05:51:49.062Z,2380
2017-08-03T05:52:29.709Z,2240
2017-08-03T05:53:10.309Z,2064
2017-08-03T05:53:50.832Z,1896
2017-08-03T05:54:31.374Z,1720
2017-08-03T05:55:11.984Z,1564
2017-08-03T05:55:52.362Z,1444
2017-08-03T05:56:32.929Z,1352
2017-08-03T05:57:13.401Z,1288
2017-08-03T05:57:53.966Z,1244
2017-08-03T05:58:34.388Z,1228
2017-08-03T05:59:14.959Z,1232
2017-08-03T05:59:55.455Z,1256
2017-08-03T06:00:36.465Z,1308
2017-08-03T06:01:16.990Z,1392
2017-08-03T06:01:57.433Z,1492
2017-08-03T06:02:38.060Z,1596
2017-08-03T06:03:18.533Z,1676
2017-08-03T06:03:59.156Z,1740
2017-08-03T06:04:39.625Z,1756
2017-08-03T06:05:20.183Z,1732
2017-08-03T06:06:00.733Z,1660
2017-08-03T06:06:41.209Z,1532
2017-08-03T06:07:21.754Z,1404
2017-08-03T06:08:02.309Z,1304
2017-08-03T06:08:42.830Z,1248
2017-08-03T06:09:23.401Z,1236
2017-08-03T06:10:03.895Z,1260
2017-08-03T06:10:44.490Z,1300
2017-08-03T06:11:25.780Z,1372
2017-08-03T06:12:06.254Z,1484
2017-08-03T06:12:46.711Z,1620
2017-08-03T06:13:27.393Z,1760
2017-08-03T06:14:07.881Z,1872
2017-08-03T06:14:48.379Z,1932
2017-08-03T06:15:28.941Z,1944
2017-08-03T06:16:09.453Z,1964
2017-08-03T06:16:50.832Z,2024
2017-08-03T06:17:32.236Z,2096
2017-08-03T06:18:11.970Z,2184
2017-08-03T06:18:52.410Z,2252
2017-08-03T06:19:33.018Z,2320
2017-08-03T06:20:14.019Z,2420
2017-08-03T06:20:54.487Z,2568
2017-08-03T06:21:35.049Z,2732
2017-08-03T06:22:15.510Z,2956
2017-08-03T06:22:56.156Z,3200
2017-08-03T06:23:36.703Z,3456
2017-08-03T06:24:17.237Z,3684
2017-08-03T06:24:57.788Z,3860
2017-08-03T06:25:38.257Z,3984
2017-08-03T06:26:18.885Z,4088
2017-08-03T06:26:59.571Z,4212
2017-08-03T06:27:40.204Z,4296
2017-08-03T06:28:20.756Z,4268
2017-08-03T06:29:01.288Z,4196
2017-08-03T06:29:41.938Z,3992
2017-08-03T06:30:22.344Z,3764
2017-08-03T06:31:03.042Z,3456
2017-08-03T06:31:43.515Z,3152
2017-08-03T06:32:24.772Z,2840
2017-08-03T06:33:05.412Z,2572
2017-08-03T06:33:45.948Z,2344
2017-08-03T06:34:26.398Z,2148
2017-08-03T06:35:07.020Z,1960
2017-08-03T06:35:47.555Z,1828
2017-08-03T06:36:28.289Z,1768
2017-08-03T06:37:08.894Z,1804
2017-08-03T06:37:49.543Z,1936
2017-08-03T06:38:30.185Z,2132
2017-08-03T06:39:10.744Z,2340
2017-08-03T06:39:51.568Z,2508
2017-08-03T06:40:32.234Z,2580
2017-08-03T06:41:12.756Z,2544
2017-08-03T06:41:53.480Z,2456
2017-08-03T06:42:33.947Z,2376
2017-08-03T06:43:14.536Z,2340
2017-08-03T06:43:55.023Z,2384
2017-08-03T06:44:35.559Z,2488
2017-08-03T06:45:16.131Z,2664
2017-08-03T06:45:56.616Z,2916
2017-08-03T06:46:37.122Z,3276
2017-08-03T06:47:17.696Z,3692
2017-08-03T06:47:58.439Z,4092
2017-08-03T06:48:39.423Z,4428
2017-08-03T06:49:20.251Z,4592
2017-08-03T06:50:00.890Z,4672
2017-08-03T06:50:41.469Z,4700
2017-08-03T06:51:22.147Z,4780
2017-08-03T06:52:02.630Z,4852
2017-08-03T06:52:43.378Z,4772
2017-08-03T06:53:23.756Z,4524
2017-08-03T06:54:04.953Z,4144
2017-08-03T06:54:45.523Z,3728
2017-08-03T06:55:26.603Z,3396
2017-08-03T06:56:07.321Z,3188
2017-08-03T06:56:47.908Z,3084
2017-08-03T06:57:28.564Z,3020
2017-08-03T06:58:09.150Z,2996
2017-08-03T06:58:49.613Z,2916
2017-08-03T06:59:30.501Z,2792
2017-08-03T07:00:11.713Z,2604
2017-08-03T07:00:52.111Z,2444
2017-08-03T07:01:33.576Z,2340
2017-08-03T07:02:15.217Z,2300
2017-08-03T07:02:55.786Z,2252
2017-08-03T07:03:36.700Z,2200
2017-08-03T07:04:17.233Z,2224
2017-08-03T07:04:57.732Z,2348
2017-08-03T07:05:38.195Z,2576
2017-08-03T07:06:18.789Z,2896
2017-08-03T07:06:59.477Z,3232
2017-08-03T07:07:40.025Z,3656
2017-08-03T07:08:20.537Z,4236
2017-08-03T07:09:01.208Z,4912
2017-08-03T07:09:41.995Z,5664
2017-08-03T07:10:22.439Z,6352
2017-08-03T07:11:04.611Z,6720
2017-08-03T07:11:45.550Z,6604
2017-08-03T07:12:31.999Z,6164
2017-08-03T07:13:14.538Z,5800
2017-08-03T07:13:59.444Z,5764
2017-08-03T07:14:42.544Z,6140
2017-08-03T07:15:26.174Z,6764
2017-08-03T07:16:06.663Z,7408
2017-08-03T07:16:48.048Z,7752
2017-08-03T07:17:29.917Z,7744
2017-08-03T07:18:13.197Z,7492
2017-08-03T07:18:54.698Z,7132
2017-08-03T07:19:39.520Z,6844
2017-08-03T07:20:26.298Z,6968
2017-08-03T07:21:11.786Z,7256
2017-08-03T07:21:54.536Z,7440
2017-08-03T07:22:36.637Z,7296
2017-08-03T07:23:18.626Z,6932
2017-08-03T07:23:59.283Z,6504
2017-08-03T07:24:41.363Z,6072
2017-08-03T07:25:23.444Z,5588
2017-08-03T07:26:05.884Z,5268
2017-08-03T07:26:46.991Z,5112
2017-08-03T07:27:29.303Z,5172
2017-08-03T07:28:11.465Z,5444
2017-08-03T07:28:54.264Z,5908
2017-08-03T07:29:39.789Z,6436
2017-08-03T07:30:21.635Z,6784
2017-08-03T07:31:02.280Z,6900
2017-08-03T07:31:43.664Z,6784
2017-08-03T07:32:24.592Z,6584
2017-08-03T07:33:05.288Z,6424
2017-08-03T07:33:45.996Z,6448
2017-08-03T07:34:26.573Z,6584
2017-08-03T07:35:07.445Z,6772
2017-08-03T07:35:48.377Z,6952
2017-08-03T07:36:29.171Z,7064
2017-08-03T07:37:10.736Z,6980
2017-08-03T07:37:52.400Z,6672
2017-08-03T07:38:33.434Z,6060
2017-08-03T07:39:15.853Z,5312
2017-08-03T07:39:59.995Z,4660
2017-08-03T07:40:40.944Z,4276
2017-08-03T07:41:21.729Z,4112
2017-08-03T07:42:04.423Z,4108
2017-08-03T07:42:47.863Z,4192
2017-08-03T07:43:29.178Z,4324
2017-08-03T07:44:10.255Z,4412
2017-08-03T07:44:52.572Z,4436
2017-08-03T07:45:35.594Z,4404
2017-08-03T07:46:18.948Z,4316
2017-08-03T07:47:02.296Z,4176
2017-08-03T07:47:44.518Z,3996
2017-08-03T07:48:25.197Z,3888
2017-08-03T07:49:06.448Z,3828
2017-08-03T07:49:47.167Z,3860
2017-08-03T07:50:28.486Z,3992
2017-08-03T07:51:09.943Z,4220
2017-08-03T07:51:50.697Z,4548
2017-08-03T07:52:32.392Z,4944
2017-08-03T07:53:13.426Z,5408
2017-08-03T07:53:53.986Z,5932
2017-08-03T07:54:34.689Z,6472
2017-08-03T07:55:15.410Z,6912
2017-08-03T07:55:55.969Z,7188
2017-08-03T07:56:36.771Z,7332
2017-08-03T07:57:18.401Z,7392
2017-08-03T07:57:59.974Z,7444
2017-08-03T07:58:41.426Z,7404
2017-08-03T08:01:41.481Z,6540
2017-08-03T08:02:40.929Z,7316
2017-08-03T08:03:38.460Z,8232
2017-08-03T08:04:36.576Z,9068
2017-08-03T08:05:33.650Z,9676
2017-08-03T08:06:28.334Z,10168
2017-08-03T08:07:27.245Z,10620
2017-08-03T08:08:24.310Z,10968
2017-08-03T08:09:22.007Z,11120
2017-08-03T08:10:18.343Z,11052
2017-08-03T08:11:19.015Z,10988
2017-08-03T08:12:20.006Z,10540
2017-08-03T08:13:17.598Z,10784
2017-08-03T08:14:14.608Z,12124
2017-08-03T08:15:12.202Z,14320
2017-08-03T08:16:10.122Z,16756
2017-08-03T08:17:08.531Z,17952
2017-08-03T08:18:06.594Z,15664
2017-08-03T08:19:07.125Z,12552
2017-08-03T08:20:05.690Z,9476
2017-08-03T08:20:46.205Z,8508
2017-08-03T08:21:27.248Z,7956
2017-08-03T08:22:09.002Z,7620
2017-08-03T08:22:48.997Z,7412
2017-08-03T08:23:29.490Z,7260
2017-08-03T08:24:09.764Z,7196
2017-08-03T08:24:50.318Z,7160
2017-08-03T08:25:30.664Z,7168
2017-08-03T08:26:11.113Z,7260
2017-08-03T08:26:51.537Z,7408
2017-08-03T08:27:31.925Z,7392
2017-08-03T08:28:12.414Z,7208
2017-08-03T08:28:52.875Z,6876
2017-08-03T08:29:33.237Z,6608
2017-08-03T08:30:13.618Z,6488
2017-08-03T08:30:54.025Z,6616
2017-08-03T08:31:34.453Z,7032
2017-08-03T08:32:14.846Z,7652
2017-08-03T08:32:55.258Z,8468
2017-08-03T08:33:35.735Z,9416
2017-08-03T08:34:16.205Z,10428
2017-08-03T08:34:56.653Z,11416
2017-08-03T08:35:37.058Z,12396
2017-08-03T08:40:25.027Z,13984
2017-08-03T08:41:04.994Z,13452
2017-08-03T08:41:45.439Z,13748
2017-08-03T08:44:27.962Z,15444
2017-08-03T08:45:08.754Z,15560
2017-08-03T08:45:49.458Z,15800
2017-08-03T08:53:21.128Z,13380
2017-08-03T08:54:01.389Z,12680
2017-08-03T08:54:42.055Z,11728
2017-08-03T08:55:22.664Z,10672
2017-08-03T08:56:03.054Z,9788
2017-08-03T08:56:43.891Z,9072
2017-08-03T08:57:24.803Z,8580
2017-08-03T08:58:05.213Z,8320
2017-08-03T08:58:45.634Z,8128
2017-08-03T08:59:26.081Z,7948
2017-08-03T09:05:11.044Z,6672
2017-08-03T09:05:57.164Z,7020
2017-08-03T09:06:41.039Z,7416
2017-08-03T09:07:22.359Z,7676
2017-08-03T09:08:03.344Z,7892
2017-08-03T09:08:44.056Z,8196
2017-08-03T09:09:25.035Z,8664
2017-08-03T09:10:05.624Z,9276
2017-08-03T09:10:46.339Z,9908
2017-08-03T09:11:27.993Z,10440
2017-08-03T09:12:09.884Z,10936
2017-08-03T09:12:51.514Z,11308
2017-08-03T09:13:33.383Z,11460
2017-08-03T09:14:13.893Z,11328
2017-08-03T09:14:55.414Z,11096
2017-08-03T09:15:36.958Z,10768
2017-08-03T09:16:19.784Z,10568
2017-08-03T09:17:02.398Z,10760
2017-08-03T09:17:47.354Z,11288
2017-08-03T09:18:30.330Z,11816
2017-08-03T09:19:11.967Z,12412
2017-08-03T09:19:52.788Z,13516
2017-08-03T09:20:34.032Z,15364
2017-08-03T09:21:15.049Z,16540
2017-08-03T09:21:55.775Z,16008
2017-08-03T09:22:36.402Z,15032
2017-08-03T09:23:21.992Z,14048
2017-08-03T09:24:05.150Z,13640
2017-08-03T09:24:49.424Z,13668
2017-08-03T09:25:33.699Z,14264
2017-08-03T09:26:17.267Z,15048
2017-08-03T09:26:58.566Z,15312
2017-08-03T09:27:42.287Z,16164
2017-08-03T09:28:22.105Z,18112
2017-08-03T09:29:02.463Z,20288
2017-08-03T09:29:43.105Z,22560
2017-08-03T09:30:23.573Z,22304
2017-08-03T09:31:03.987Z,21696
2017-08-03T09:31:44.554Z,23200
2017-08-03T09:32:25.075Z,56128
2017-08-03T09:33:05.961Z,26816
2017-08-03T09:33:46.629Z,35616
2017-08-03T09:34:27.141Z,49312
2017-08-03T09:35:07.721Z,62816
2017-08-03T09:35:49.278Z,33408
2017-08-03T09:36:30.259Z,32000
2017-08-03T09:37:11.210Z,32000
2017-08-03T09:37:51.921Z,33568
2017-08-03T09:38:32.680Z,32768
2017-08-03T09:39:13.290Z,31872
2017-08-03T09:39:54.135Z,29280
2017-08-03T09:40:34.911Z,30720
2017-08-03T09:41:15.454Z,36896
2017-08-03T09:41:56.092Z,31456
2017-08-03T09:42:37.039Z,33248
2017-08-03T09:43:17.722Z,59616
2017-08-03T09:43:58.563Z,47168
2017-08-03T09:44:39.073Z,93056
2017-08-03T09:45:19.696Z,60832
2017-08-03T09:46:00.206Z,53792
2017-08-03T09:46:40.829Z,47392
2017-08-03T09:47:21.855Z,38624
2017-08-03T09:48:03.024Z,38592
2017-08-03T09:48:44.197Z,86240
2017-08-03T09:49:24.916Z,42208
2017-08-03T09:50:05.503Z,43040
2017-08-03T09:50:46.103Z,36032
2017-08-03T09:51:26.661Z,31584
2017-08-03T09:52:08.345Z,30624
2017-08-03T09:52:49.276Z,31040
2017-08-03T09:53:30.788Z,29184
2017-08-03T09:54:11.745Z,28160